Time;durP1;ratioP1;P1;durP2;ratioP2;P2;SDS_P1;SDS_P2;PMS_P1;PMS_P2;Temp;Humidity;BMP_temperature;BMP_pressure;BME280_temperature;BME280_humidity;BME280_pressure;Samples;Min_cycle;Max_cycle;Signal;HPM_P1;HPM_P2
2023/07/12 00:00:45;;;;;;;17.67;9.45;;;;;;;21.11;100.00;92746.88;4973916;28;20017;-81
2023/07/12 00:03:11;;;;;;;19.05;9.48;;;;;;;20.58;100.00;92593.66;4965446;28;20421;-83
2023/07/12 00:05:37;;;;;;;21.98;10.60;;;;;;;20.66;100.00;92668.28;4956647;28;20035;-82
2023/07/12 00:08:04;;;;;;;24.83;10.98;;;;;;;20.39;100.00;92670.66;4939995;28;20097;-82
2023/07/12 00:10:32;;;;;;;19.45;10.32;;;;;;;20.21;100.00;92688.06;4956543;28;20027;-83
2023/07/12 00:12:58;;;;;;;17.48;11.00;;;;;;;20.17;100.00;92691.41;4956901;28;20130;-83
2023/07/12 00:15:28;;;;;;;18.92;10.80;;;;;;;20.23;100.00;92720.38;4957998;28;20074;-82
2023/07/12 00:17:54;;;;;;;18.80;11.32;;;;;;;19.88;100.00;92673.16;4964859;28;20377;-81
2023/07/12 00:20:33;;;;;;;19.85;10.55;;;;;;;19.71;100.00;92680.31;4956661;28;20043;-81
2023/07/12 00:22:59;;;;;;;19.65;10.63;;;;;;;19.61;100.00;92733.88;4940057;28;20076;-81
2023/07/12 00:25:29;;;;;;;16.38;10.90;;;;;;;19.59;100.00;92751.22;4959100;28;20039;-81
2023/07/12 00:27:55;;;;;;;18.52;11.02;;;;;;;19.59;100.00;92738.75;4967884;28;20042;-82
2023/07/12 00:30:30;;;;;;;18.00;10.00;;;;;;;19.68;100.00;92741.25;4940201;29;20046;-82
2023/07/12 00:33:02;;;;;;;13.40;8.95;;;;;;;19.70;100.00;92725.78;4939743;28;20054;-82
2023/07/12 00:35:29;;;;;;;18.13;7.28;;;;;;;19.71;100.00;92727.34;4941023;29;20039;-82
2023/07/12 00:37:57;;;;;;;15.00;7.50;;;;;;;19.69;100.00;92708.31;4957533;28;20039;-82
2023/07/12 00:41:04;;;;;;;16.30;8.45;;;;;;;19.75;100.00;92702.41;4941170;29;20031;-83
2023/07/12 00:43:57;;;;;;;17.42;7.10;;;;;;;19.71;100.00;92706.09;4962612;28;20055;-82
2023/07/12 00:46:31;;;;;;;16.50;7.57;;;;;;;19.74;100.00;92714.13;4940717;29;20023;-82
2023/07/12 00:48:57;;;;;;;16.00;6.80;;;;;;;19.82;100.00;92712.47;4955692;28;20102;-81
2023/07/12 00:51:25;;;;;;;18.45;7.22;;;;;;;19.81;100.00;92721.53;4941117;29;20062;-82
2023/07/12 00:53:51;;;;;;;18.10;7.30;;;;;;;19.82;100.00;92724.97;4940317;28;20603;-81
2023/07/12 00:56:16;;;;;;;15.35;7.20;;;;;;;19.82;100.00;92725.75;4946427;29;20039;-82
2023/07/12 00:58:45;;;;;;;19.02;7.57;;;;;;;19.83;100.00;92729.94;4963354;28;20464;-82
2023/07/12 01:01:13;;;;;;;16.42;6.80;;;;;;;19.98;100.00;92731.13;4956510;28;20181;-82
2023/07/12 01:03:43;;;;;;;20.15;7.13;;;;;;;20.00;100.00;92712.94;4957762;28;20135;-82
2023/07/12 01:06:12;;;;;;;13.25;6.05;;;;;;;20.05;100.00;92715.38;4959303;28;20031;-82
2023/07/12 01:08:41;;;;;;;14.45;5.85;;;;;;;20.04;100.00;92751.03;4962733;28;20082;-81
2023/07/12 01:11:10;;;;;;;15.95;6.05;;;;;;;19.98;100.00;92756.91;4971010;28;20043;-82
2023/07/12 01:13:40;;;;;;;12.98;6.60;;;;;;;20.13;100.00;92749.00;4940338;29;20401;-81
2023/07/12 01:16:06;;;;;;;11.82;5.78;;;;;;;20.06;100.00;92727.56;4957164;28;20182;-81
2023/07/12 01:18:33;;;;;;;12.35;5.18;;;;;;;20.01;100.00;92714.50;4942657;28;20039;-82
2023/07/12 01:21:12;;;;;;;13.68;5.03;;;;;;;19.99;100.00;92716.72;4944154;28;20483;-81
2023/07/12 01:23:40;;;;;;;13.05;5.70;;;;;;;20.06;100.00;92727.56;4973047;28;20512;-81
2023/07/12 01:26:20;;;;;;;15.68;5.40;;;;;;;19.99;100.00;92716.72;4964940;28;20050;-80
2023/07/12 01:28:49;;;;;;;13.75;6.38;;;;;;;19.89;100.00;92695.97;4961221;28;20481;-79
2023/07/12 01:31:15;;;;;;;16.70;7.10;;;;;;;19.74;100.00;92690.25;4960914;28;20040;-81
2023/07/12 01:33:41;;;;;;;14.23;6.88;;;;;;;19.71;100.00;92701.53;4944721;29;20027;-82
2023/07/12 01:36:08;;;;;;;15.52;6.18;;;;;;;19.57;100.00;92690.50;4958138;28;20046;-81
2023/07/12 01:38:34;;;;;;;17.50;6.45;;;;;;;19.54;100.00;92675.22;4954513;28;20042;-82
2023/07/12 01:40:59;;;;;;;14.98;6.30;;;;;;;19.55;100.00;92676.78;4960421;28;20051;-82
2023/07/12 01:43:25;;;;;;;13.00;5.60;;;;;;;19.48;100.00;92687.22;4959826;28;20482;-82
2023/07/12 01:45:51;;;;;;;12.98;5.85;;;;;;;19.38;100.00;92682.38;4978954;28;20384;-81
2023/07/12 01:48:17;;;;;;;10.90;5.32;;;;;;;19.33;100.00;92680.72;4964442;28;20505;-82
2023/07/12 01:50:42;;;;;;;10.93;5.65;;;;;;;19.29;100.00;92664.69;4971775;28;20043;-81
2023/07/12 01:53:09;;;;;;;13.43;6.35;;;;;;;19.29;100.00;92667.34;4965457;28;20487;-81
2023/07/12 01:55:34;;;;;;;14.55;6.15;;;;;;;19.32;100.00;92669.34;4960479;28;20050;-81
2023/07/12 01:58:00;;;;;;;11.75;5.40;;;;;;;19.27;100.00;92666.94;4950156;28;20054;-82
2023/07/12 02:00:26;;;;;;;11.05;4.78;;;;;;;19.48;100.00;92682.69;4962635;28;20078;-80
2023/07/12 02:02:51;;;;;;;13.05;5.88;;;;;;;19.20;100.00;92679.97;4977923;28;20038;-81
2023/07/12 02:05:21;;;;;;;9.95;4.88;;;;;;;19.17;100.00;92682.53;4971482;28;20039;-81
2023/07/12 02:07:48;;;;;;;9.57;5.00;;;;;;;19.21;100.00;92676.22;4943051;29;20035;-79
2023/07/12 02:10:17;;;;;;;10.68;4.15;;;;;;;19.12;100.00;92664.97;4934766;28;20094;-81
2023/07/12 02:12:43;;;;;;;10.10;4.50;;;;;;;19.05;100.00;92664.72;4943087;29;20027;-80
2023/07/12 02:15:11;;;;;;;12.90;4.90;;;;;;;18.98;100.00;92662.66;4960415;28;20050;-81
2023/07/12 02:17:37;;;;;;;10.25;5.22;;;;;;;18.83;100.00;92653.50;4942688;28;20049;-81
2023/07/12 02:20:04;;;;;;;9.63;5.18;;;;;;;18.78;100.00;92645.78;4959189;28;20045;-80
2023/07/12 02:22:33;;;;;;;16.13;5.85;;;;;;;18.80;100.00;92654.16;4950890;28;20075;-79
2023/07/12 02:25:00;;;;;;;12.13;5.30;;;;;;;18.81;100.00;92642.44;4959456;28;20401;-81
2023/07/12 02:27:25;;;;;;;12.50;5.28;;;;;;;18.92;100.00;92650.72;4943092;28;20130;-81
2023/07/12 02:29:51;;;;;;;10.73;4.80;;;;;;;18.87;100.00;92648.31;4958805;28;20122;-82
2023/07/12 02:32:18;;;;;;;14.15;5.60;;;;;;;18.88;100.00;92647.19;4956189;28;20054;-81
2023/07/12 02:34:44;;;;;;;12.73;5.45;;;;;;;18.87;100.00;92638.47;4978509;28;20035;-81
2023/07/12 02:37:09;;;;;;;12.30;5.45;;;;;;;18.90;100.00;92632.50;4931409;29;20511;-80
2023/07/12 02:39:35;;;;;;;11.98;4.80;;;;;;;19.01;100.00;92645.31;4960043;28;20050;-80
2023/07/12 02:42:01;;;;;;;12.50;4.82;;;;;;;19.05;100.00;92652.25;4972213;28;20035;-79
2023/07/12 02:44:26;;;;;;;15.98;5.10;;;;;;;19.28;100.00;92652.53;4963238;28;20114;-81
2023/07/12 02:46:52;;;;;;;11.27;5.00;;;;;;;19.24;100.00;92661.50;4964762;28;20041;-80
2023/07/12 02:49:18;;;;;;;12.48;4.88;;;;;;;19.23;100.00;92663.38;4964276;28;20043;-81
2023/07/12 02:51:44;;;;;;;16.38;5.28;;;;;;;19.29;100.00;92675.28;4974418;28;20031;-80
2023/07/12 02:54:09;;;;;;;8.68;4.90;;;;;;;19.22;100.00;92669.78;4955883;28;20512;-80
2023/07/12 02:56:35;;;;;;;13.60;5.55;;;;;;;19.12;100.00;92670.25;4975730;28;20043;-80
2023/07/12 02:59:00;;;;;;;16.92;5.10;;;;;;;19.08;100.00;92677.34;4978777;28;20055;-78
2023/07/12 03:01:26;;;;;;;13.57;4.97;;;;;;;19.08;100.00;92674.69;4978339;28;20253;-79
2023/07/12 03:03:53;;;;;;;11.30;5.20;;;;;;;19.07;100.00;92684.53;4950881;28;20038;-81
2023/07/12 03:06:19;;;;;;;13.40;5.50;;;;;;;19.08;100.00;92680.00;4967594;28;20034;-81
2023/07/12 03:08:44;;;;;;;13.23;5.25;;;;;;;19.07;100.00;92667.81;4940458;28;20039;-81
2023/07/12 03:11:10;;;;;;;14.18;5.68;;;;;;;19.05;100.00;92659.41;4959155;28;20539;-80
2023/07/12 03:13:36;;;;;;;12.27;5.57;;;;;;;19.05;100.00;92654.91;4974027;28;20045;-79
2023/07/12 03:16:06;;;;;;;10.55;5.10;;;;;;;19.05;100.00;92662.88;4972245;28;20031;-80
2023/07/12 03:18:32;;;;;;;12.77;5.25;;;;;;;19.06;100.00;92664.41;4971732;28;20035;-81
2023/07/12 03:20:59;;;;;;;17.70;5.80;;;;;;;19.08;100.00;92677.34;4959745;28;20074;-81
2023/07/12 03:23:25;;;;;;;12.68;5.78;;;;;;;19.03;100.00;92678.34;4978352;28;20030;-81
2023/07/12 03:25:51;;;;;;;13.27;6.47;;;;;;;19.03;100.00;92680.22;4969842;28;20437;-80
2023/07/12 03:28:16;;;;;;;19.10;6.20;;;;;;;19.02;100.00;92671.47;4959124;28;20082;-81
2023/07/12 03:30:42;;;;;;;15.57;5.35;;;;;;;18.99;100.00;92676.69;4958527;28;20039;-81
2023/07/12 03:33:07;;;;;;;16.05;5.63;;;;;;;18.95;100.00;92686.41;4941693;28;20409;-81
2023/07/12 03:35:33;;;;;;;14.63;5.70;;;;;;;18.99;100.00;92697.91;4959994;28;20031;-82
2023/07/12 03:37:58;;;;;;;14.45;5.63;;;;;;;18.85;100.00;92688.41;4948838;28;20127;-82
2023/07/12 03:40:24;;;;;;;12.02;5.68;;;;;;;18.82;100.00;92681.09;4975651;28;20035;-81
2023/07/12 03:42:50;;;;;;;15.80;5.90;;;;;;;18.82;100.00;92683.00;4961511;28;20484;-83
2023/07/12 03:45:15;;;;;;;16.70;5.72;;;;;;;18.81;100.00;92673.50;4974373;28;20042;-79
2023/07/12 03:47:41;;;;;;;13.90;6.00;;;;;;;18.81;100.00;92676.16;4953974;28;20466;-82
2023/07/12 03:50:07;;;;;;;11.70;6.10;;;;;;;18.83;100.00;92679.25;4943157;29;20039;-82
2023/07/12 03:52:32;;;;;;;19.10;6.60;;;;;;;18.87;100.00;92683.56;4959550;28;20038;-80
2023/07/12 03:54:58;;;;;;;14.45;6.32;;;;;;;18.89;100.00;92694.59;4978085;28;20098;-82
2023/07/12 03:57:23;;;;;;;13.70;6.50;;;;;;;18.92;100.00;92699.25;4969454;28;20381;-83
2023/07/12 03:59:49;;;;;;;15.93;6.10;;;;;;;18.93;100.00;92697.34;4952266;28;20061;-81
2023/07/12 04:02:15;;;;;;;15.73;6.72;;;;;;;18.92;100.00;92693.94;4970609;28;20043;-81
2023/07/12 04:04:42;;;;;;;19.15;6.28;;;;;;;18.95;100.00;92678.47;4961678;28;20035;-80
2023/07/12 04:07:09;;;;;;;17.33;6.70;;;;;;;18.95;100.00;92665.97;4943440;28;20470;-78
2023/07/12 04:09:34;;;;;;;15.95;6.88;;;;;;;18.95;100.00;92676.56;4973281;28;20026;-79
2023/07/12 04:12:00;;;;;;;17.25;7.35;;;;;;;18.96;100.00;92682.66;4957414;28;20393;-78
2023/07/12 04:14:26;;;;;;;18.45;6.82;;;;;;;18.97;100.00;92684.22;4970107;28;20110;-78
2023/07/12 04:16:51;;;;;;;15.07;6.70;;;;;;;18.98;100.00;92680.44;4948753;28;20020;-77
2023/07/12 04:19:17;;;;;;;17.75;7.00;;;;;;;18.97;100.00;92668.28;4957553;28;20443;-79
2023/07/12 04:21:42;;;;;;;20.33;6.68;;;;;;;18.99;100.00;92666.09;4955910;28;20038;-78
2023/07/12 04:24:08;;;;;;;14.75;7.38;;;;;;;18.99;100.00;92656.25;4955861;28;20046;-79
2023/07/12 04:26:33;;;;;;;23.10;7.47;;;;;;;19.02;100.00;92638.88;4934138;29;20035;-78
2023/07/12 04:29:00;;;;;;;19.05;7.35;;;;;;;19.00;100.00;92633.91;4941648;28;20625;-78
2023/07/12 04:31:26;;;;;;;18.15;6.90;;;;;;;18.97;100.00;92631.91;4959754;28;20146;-79
2023/07/12 04:33:52;;;;;;;16.45;6.70;;;;;;;18.99;100.00;92647.50;4948437;28;20059;-78
2023/07/12 04:36:18;;;;;;;20.02;7.18;;;;;;;18.97;100.00;92652.38;4967744;28;20349;-79
2023/07/12 04:38:44;;;;;;;28.15;7.53;;;;;;;18.99;100.00;92676.69;4962279;28;20139;-79
2023/07/12 04:41:10;;;;;;;19.98;7.47;;;;;;;18.93;100.00;92686.75;4963095;28;20151;-77
2023/07/12 04:43:36;;;;;;;21.63;7.93;;;;;;;18.93;100.00;92694.69;4953139;28;20031;-77
2023/07/12 04:46:03;;;;;;;20.00;8.15;;;;;;;18.90;100.00;92698.78;4955430;28;20043;-79
2023/07/12 04:48:30;;;;;;;22.17;7.68;;;;;;;18.88;100.00;92711.59;4939677;28;20103;-77
2023/07/12 04:50:55;;;;;;;22.77;8.07;;;;;;;18.86;100.00;92727.06;4973711;28;20035;-78
2023/07/12 04:53:22;;;;;;;24.80;7.60;;;;;;;18.87;100.00;92739.25;4956709;28;20047;-78
2023/07/12 04:55:52;;;;;;;33.00;8.35;;;;;;;18.86;100.00;92758.91;4937522;28;20076;-79
2023/07/12 04:58:19;;;;;;;25.83;9.05;;;;;;;18.87;100.00;92744.56;4962989;28;20047;-79
2023/07/12 05:00:45;;;;;;;31.65;9.85;;;;;;;18.77;100.00;92730.91;4961755;28;20053;-79
2023/07/12 05:03:12;;;;;;;30.80;9.25;;;;;;;18.54;100.00;92731.34;4959098;28;20047;-78
2023/07/12 05:05:39;;;;;;;25.20;9.15;;;;;;;18.46;100.00;92782.56;4959429;28;20054;-78
2023/07/12 05:08:05;;;;;;;165.35;12.40;;;;;;;18.35;100.00;92813.22;4977477;28;20347;-79
2023/07/12 05:10:32;;;;;;;16.52;9.15;;;;;;;18.17;100.00;92807.31;4972138;28;20397;-79
2023/07/12 05:12:57;;;;;;;18.58;9.48;;;;;;;18.12;100.00;92802.22;4943572;28;20047;-78
2023/07/12 05:15:23;;;;;;;20.75;9.68;;;;;;;18.14;100.00;92819.31;4968669;28;20041;-79
2023/07/12 05:17:48;;;;;;;26.90;10.48;;;;;;;18.16;100.00;92833.03;4982689;28;20086;-77
2023/07/12 05:20:15;;;;;;;20.77;8.75;;;;;;;18.21;100.00;92846.06;4990387;28;20037;-78
2023/07/12 05:22:41;;;;;;;20.90;9.88;;;;;;;18.29;100.00;92849.75;4983258;28;20027;-78
2023/07/12 05:25:08;;;;;;;21.92;9.00;;;;;;;18.41;100.00;92849.78;4964011;29;20051;-79
2023/07/12 05:27:33;;;;;;;20.70;9.25;;;;;;;18.44;100.00;92857.13;4959969;28;20035;-77
2023/07/12 05:30:00;;;;;;;23.58;9.25;;;;;;;18.34;100.00;92860.16;4955742;28;20046;-77
2023/07/12 05:32:26;;;;;;;18.05;8.75;;;;;;;18.22;100.00;92883.97;4964745;29;20019;-77
2023/07/12 05:34:52;;;;;;;24.83;8.85;;;;;;;17.97;100.00;92888.31;4958801;29;20036;-78
2023/07/12 05:37:18;;;;;;;20.38;8.70;;;;;;;17.83;100.00;92867.38;4962349;29;20038;-77
2023/07/12 05:39:43;;;;;;;18.35;8.88;;;;;;;17.78;100.00;92820.66;4956493;29;20102;-78
2023/07/12 05:42:09;;;;;;;17.02;9.10;;;;;;;17.79;100.00;92777.22;4972494;28;20053;-78
2023/07/12 05:44:35;;;;;;;23.65;9.30;;;;;;;17.84;100.00;92777.03;4951182;28;20053;-77
2023/07/12 05:47:01;;;;;;;19.48;10.13;;;;;;;17.92;100.00;92793.94;4947788;28;20035;-78
2023/07/12 05:49:27;;;;;;;20.30;9.77;;;;;;;17.93;100.00;92800.81;4939841;29;20482;-78
2023/07/12 05:51:53;;;;;;;19.55;10.60;;;;;;;17.97;100.00;92825.56;4946686;29;20031;-78
2023/07/12 05:54:18;;;;;;;20.90;10.60;;;;;;;17.94;100.00;92839.41;4950093;28;20074;-78
2023/07/12 05:56:44;;;;;;;19.92;10.07;;;;;;;17.96;100.00;92825.88;4939142;29;20047;-78
2023/07/12 05:59:10;;;;;;;22.27;10.43;;;;;;;17.99;100.00;92812.75;4938714;29;20054;-79
2023/07/12 06:01:36;;;;;;;22.02;11.13;;;;;;;18.05;100.00;92818.63;4942195;29;20120;-78
2023/07/12 06:04:02;;;;;;;1999.90;65.10;;;;;;;17.69;100.00;92799.53;4942429;29;20397;-77
2023/07/12 06:06:27;;;;;;;1999.90;64.53;;;;;;;17.38;100.00;92772.66;4936319;29;20035;-78
2023/07/12 06:08:53;;;;;;;411.25;12.60;;;;;;;17.22;100.00;92790.94;4953566;29;20031;-77
2023/07/12 06:11:19;;;;;;;1542.32;42.42;;;;;;;17.11;100.00;92813.56;4955236;28;20039;-78
2023/07/12 06:13:45;;;;;;;1999.90;92.32;;;;;;;17.08;100.00;92812.34;4954831;29;20031;-76
2023/07/12 06:16:10;;;;;;;1578.80;48.50;;;;;;;16.98;100.00;92771.16;4944633;29;20035;-77
2023/07/12 06:18:36;;;;;;;1000.25;28.00;;;;;;;16.97;100.00;92743.16;4948106;28;20098;-77
2023/07/12 06:21:06;;;;;;;1999.90;78.43;;;;;;;16.90;100.00;92683.94;4939038;29;20085;-78
2023/07/12 06:23:32;;;;;;;1807.60;57.00;;;;;;;16.87;100.00;92611.34;4923053;29;20039;-78
2023/07/12 06:25:59;;;;;;;658.15;22.15;;;;;;;16.97;100.00;92589.03;4937469;29;20032;-79
2023/07/12 06:28:25;;;;;;;272.30;13.05;;;;;;;16.94;100.00;92616.88;4937130;29;20078;-78
2023/07/12 06:30:51;;;;;;;22.98;11.32;;;;;;;16.98;100.00;92630.25;4951602;29;20138;-78
2023/07/12 06:33:17;;;;;;;20.73;7.15;;;;;;;16.94;100.00;92638.03;4938971;28;20126;-78
2023/07/12 06:35:43;;;;;;;13.48;6.57;;;;;;;16.99;100.00;92650.28;4937270;29;20063;-78
2023/07/12 06:38:08;;;;;;;14.35;6.70;;;;;;;16.96;100.00;92657.00;4953009;29;20517;-78
2023/07/12 06:40:34;;;;;;;15.07;5.88;;;;;;;16.99;100.00;92674.88;4938194;29;20090;-79
2023/07/12 06:42:59;;;;;;;12.38;6.25;;;;;;;16.99;100.00;92666.16;4938135;29;20437;-79
2023/07/12 06:45:25;;;;;;;14.90;5.82;;;;;;;17.05;100.00;92667.53;4935297;29;20044;-79
2023/07/12 06:47:51;;;;;;;15.52;4.88;;;;;;;17.20;100.00;92687.31;4938423;29;20032;-77
2023/07/12 06:50:16;;;;;;;13.57;5.20;;;;;;;17.34;100.00;92713.53;4937323;29;20054;-78
2023/07/12 06:52:42;;;;;;;10.63;4.28;;;;;;;17.31;100.00;92744.06;4943422;28;20050;-78
2023/07/12 06:55:09;;;;;;;10.27;4.10;;;;;;;17.31;100.00;92744.06;4946681;28;20031;-79
2023/07/12 06:57:35;;;;;;;15.25;5.55;;;;;;;17.34;100.00;92747.94;4937349;29;20046;-78
2023/07/12 07:00:07;;;;;;;9.80;5.18;;;;;;;17.39;100.00;92753.06;4936106;29;20379;-79
2023/07/12 07:02:33;;;;;;;16.83;6.45;;;;;;;17.51;100.00;92760.28;4946606;29;20518;-77
2023/07/12 07:04:59;;;;;;;17.40;8.02;;;;;;;17.56;100.00;92763.53;4946162;28;20039;-78
2023/07/12 07:07:24;;;;;;;21.15;9.40;;;;;;;17.67;100.00;92772.63;4953493;28;20035;-78
2023/07/12 07:09:50;;;;;;;20.33;11.05;;;;;;;17.67;100.00;92801.75;4948180;28;20043;-78
2023/07/12 07:12:16;;;;;;;26.73;10.93;;;;;;;17.71;100.00;92790.50;4945839;28;20212;-78
2023/07/12 07:14:41;;;;;;;24.80;10.57;;;;;;;17.77;100.00;92791.88;4938168;28;20490;-78
2023/07/12 07:17:11;;;;;;;22.33;10.05;;;;;;;17.78;100.00;92798.72;4944000;29;20040;-78
2023/07/12 07:19:37;;;;;;;22.83;9.90;;;;;;;17.84;100.00;92805.41;4944820;29;20349;-78
2023/07/12 07:22:03;;;;;;;20.25;9.63;;;;;;;17.88;100.00;92820.31;4951527;28;20028;-78
2023/07/12 07:24:28;;;;;;;22.20;10.00;;;;;;;17.96;100.00;92825.88;4935516;29;20055;-78
2023/07/12 07:26:54;;;;;;;20.90;10.63;;;;;;;18.07;100.00;92834.97;4949131;29;20146;-79
2023/07/12 07:29:20;;;;;;;21.85;10.98;;;;;;;18.13;100.00;92833.69;4944356;29;20039;-78
2023/07/12 07:31:46;;;;;;;22.88;10.13;;;;;;;18.21;100.00;92832.81;4936869;29;20245;-78
2023/07/12 07:34:11;;;;;;;30.15;10.40;;;;;;;18.34;100.00;92844.25;4943062;28;20050;-78
2023/07/12 07:36:37;;;;;;;16.83;9.00;;;;;;;18.46;100.00;92836.38;4935206;29;20083;-78
2023/07/12 07:39:05;;;;;;;21.70;9.35;;;;;;;18.58;100.00;92821.59;4936401;29;20369;-78
2023/07/12 07:41:31;;;;;;;30.17;11.75;;;;;;;18.70;100.00;92824.28;4942506;28;20399;-78
2023/07/12 07:43:56;;;;;;;25.00;10.13;;;;;;;18.81;100.00;92838.69;4940813;28;20199;-79
2023/07/12 07:46:22;;;;;;;21.08;9.30;;;;;;;18.95;100.00;92829.66;4943584;28;20023;-78
2023/07/12 07:48:48;;;;;;;30.38;10.48;;;;;;;19.18;100.00;92830.78;4935733;29;20043;-78
2023/07/12 07:51:19;;;;;;;29.08;10.90;;;;;;;19.49;100.00;92837.41;4948268;29;20046;-78
2023/07/12 07:53:45;;;;;;;31.92;12.30;;;;;;;19.71;100.00;92833.56;4946105;28;20046;-77
2023/07/12 07:56:11;;;;;;;23.15;10.63;;;;;;;20.05;100.00;92853.53;4938485;29;20115;-78
2023/07/12 07:58:38;;;;;;;19.70;10.02;;;;;;;20.34;100.00;92849.78;4944032;29;20138;-79
2023/07/12 08:01:09;;;;;;;23.50;9.90;;;;;;;20.27;100.00;92854.16;4935126;29;20039;-77
2023/07/12 08:03:35;;;;;;;31.00;11.23;;;;;;;20.18;100.00;92863.03;4939492;29;20509;-77
2023/07/12 08:06:05;;;;;;;20.48;9.73;;;;;;;20.08;100.00;92868.78;4940683;29;20564;-78
2023/07/12 08:08:33;;;;;;;25.05;10.15;;;;;;;20.20;100.00;92867.22;4946277;29;20035;-78
2023/07/12 08:10:58;;;;;;;29.10;10.77;;;;;;;20.33;100.00;92877.50;4938937;29;20047;-77
2023/07/12 08:13:24;;;;;;;33.00;11.50;;;;;;;20.38;100.00;92881.81;4936384;29;20032;-77
2023/07/12 08:15:50;;;;;;;26.30;11.20;;;;;;;20.21;100.00;92882.06;4950690;29;20075;-78
2023/07/12 08:18:15;;;;;;;31.65;12.20;;;;;;;20.13;100.00;92881.09;4943124;29;20126;-78
2023/07/12 08:20:42;;;;;;;31.73;10.90;;;;;;;20.02;100.00;92880.78;4935604;29;20043;-78
2023/07/12 08:23:08;;;;;;;29.25;11.68;;;;;;;20.00;100.00;92885.66;4948197;28;20039;-78
2023/07/12 08:25:34;;;;;;;24.73;11.40;;;;;;;20.08;100.00;92884.75;4989234;28;20053;-78
2023/07/12 08:28:00;;;;;;;30.90;10.93;;;;;;;20.16;100.00;92889.16;4971149;28;20051;-77
2023/07/12 08:30:26;;;;;;;23.02;10.07;;;;;;;20.24;100.00;92881.38;4961407;28;20039;-78
2023/07/12 08:32:51;;;;;;;26.45;9.63;;;;;;;20.44;100.00;92885.00;4978276;28;20038;-78
2023/07/12 08:35:17;;;;;;;31.80;9.85;;;;;;;20.53;100.00;92881.06;4969398;28;20400;-78
2023/07/12 08:37:43;;;;;;;28.25;10.57;;;;;;;20.50;100.00;92883.66;4939432;29;20128;-78
2023/07/12 08:40:13;;;;;;;30.65;11.20;;;;;;;20.49;100.00;92882.88;4929128;28;20039;-78
2023/07/12 08:42:40;;;;;;;32.30;11.23;;;;;;;20.64;100.00;92872.66;4970439;28;20472;-78
2023/07/12 08:45:20;;;;;;;28.80;9.05;;;;;;;21.19;100.00;92874.47;4960011;28;20133;-78
2023/07/12 08:47:48;;;;;;;30.02;9.70;;;;;;;21.55;100.00;92861.28;4960156;28;20400;-77
2023/07/12 08:50:16;;;;;;;31.55;9.05;;;;;;;21.89;100.00;92869.66;4970418;28;20043;-78
2023/07/12 08:52:44;;;;;;;24.42;9.65;;;;;;;21.67;100.00;92873.72;4945205;29;20046;-78
2023/07/12 08:55:15;;;;;;;23.35;9.80;;;;;;;21.46;100.00;92881.97;4964917;28;20051;-78
2023/07/12 08:57:41;;;;;;;28.85;8.80;;;;;;;21.38;100.00;92881.00;4963720;28;20055;-78
2023/07/12 09:00:14;;;;;;;22.70;10.10;;;;;;;21.35;100.00;92871.81;4958990;28;20066;-78
2023/07/12 09:02:39;;;;;;;35.45;12.30;;;;;;;21.36;100.00;92876.00;4968281;28;20045;-78
2023/07/12 09:05:24;;;;;;;25.80;10.48;;;;;;;21.52;100.00;92867.28;4963091;28;20106;-80
2023/07/12 09:08:04;;;;;;;25.35;11.48;;;;;;;21.85;100.00;92863.47;4960047;29;20039;-79
2023/07/12 09:10:34;;;;;;;18.25;7.50;;;;;;;21.94;100.00;92861.38;4970458;28;20718;-78
2023/07/12 09:13:01;;;;;;;19.33;7.35;;;;;;;22.13;100.00;92858.72;4977092;28;20089;-78
2023/07/12 09:15:37;;;;;;;20.48;7.25;;;;;;;22.05;100.00;92867.72;4959542;28;20035;-77
2023/07/12 09:18:08;;;;;;;22.10;7.70;;;;;;;21.82;100.00;92855.03;4977054;28;20042;-77
2023/07/12 09:20:39;;;;;;;21.42;7.68;;;;;;;21.57;100.00;92857.16;4976997;28;20041;-78
2023/07/12 09:23:10;;;;;;;21.13;8.02;;;;;;;21.63;100.00;92860.31;4977312;28;20101;-77
2023/07/12 09:25:38;;;;;;;28.90;8.73;;;;;;;21.46;100.00;92863.31;4976480;28;20050;-77
2023/07/12 09:28:11;;;;;;;27.55;7.28;;;;;;;21.29;100.00;92865.19;4976738;28;20285;-77
2023/07/12 09:30:37;;;;;;;20.85;6.90;;;;;;;21.20;100.00;92861.91;4976248;28;20085;-77
2023/07/12 09:33:05;;;;;;;16.02;7.38;;;;;;;21.30;100.00;92864.09;4976755;28;20090;-77
2023/07/12 09:35:39;;;;;;;28.88;7.10;;;;;;;21.39;100.00;92851.38;4976274;28;20042;-77
2023/07/12 09:38:11;;;;;;;17.25;6.82;;;;;;;21.57;100.00;92853.69;4968481;28;20043;-78
2023/07/12 09:40:46;;;;;;;17.02;6.38;;;;;;;21.44;100.00;92863.69;4976728;28;20039;-78
2023/07/12 09:43:18;;;;;;;22.88;10.65;;;;;;;21.37;100.00;92860.81;4976235;28;20026;-78
2023/07/12 09:45:50;;;;;;;28.60;10.35;;;;;;;21.21;100.00;92858.16;4976471;28;20543;-77
2023/07/12 09:48:25;;;;;;;25.95;10.10;;;;;;;21.13;100.00;92856.44;4959012;28;20035;-78
2023/07/12 09:51:16;;;;;;;28.42;10.20;;;;;;;21.00;100.00;92859.16;4971345;28;20035;-77
2023/07/12 09:53:49;;;;;;;22.23;9.70;;;;;;;21.06;100.00;92856.25;4939487;29;20046;-78
2023/07/12 09:56:23;;;;;;;25.08;9.10;;;;;;;21.10;100.00;92851.81;4956432;29;20074;-78
2023/07/12 09:58:54;;;;;;;20.38;8.27;;;;;;;21.17;100.00;92844.00;4957051;29;20062;-78
2023/07/12 10:01:40;;;;;;;20.52;6.82;;;;;;;21.46;100.00;92850.78;4955956;29;20041;-76
2023/07/12 10:04:51;;;;;;;20.60;7.90;;;;;;;21.38;100.00;92847.16;4955047;29;20047;-77
2023/07/12 10:07:33;;;;;;;18.52;7.80;;;;;;;21.56;100.00;92830.84;4929041;29;20047;-78
2023/07/12 10:09:59;;;;;;;12.63;5.22;;;;;;;21.70;100.00;92838.38;4956102;29;20046;-77
2023/07/12 10:12:39;;;;;;;15.75;6.35;;;;;;;21.89;100.00;92848.31;4957387;29;20031;-77
2023/07/12 10:15:11;;;;;;;22.52;6.43;;;;;;;22.19;100.00;92844.00;4956048;29;20128;-76
2023/07/12 10:17:40;;;;;;;17.13;6.10;;;;;;;22.47;100.00;92835.06;4943993;28;20113;-77
2023/07/12 10:20:23;;;;;;;22.17;6.43;;;;;;;22.65;100.00;92835.38;4962332;28;20103;-77
2023/07/12 10:22:51;;;;;;;21.60;5.90;;;;;;;22.83;100.00;92839.19;4970760;28;20074;-77
2023/07/12 10:25:30;;;;;;;15.63;5.22;;;;;;;22.99;100.00;92841.78;4976209;28;20074;-77
2023/07/12 10:28:06;;;;;;;18.45;6.78;;;;;;;23.05;100.00;92845.66;4977962;28;20041;-77
2023/07/12 10:30:33;;;;;;;14.50;5.57;;;;;;;22.83;100.00;92841.84;4967801;28;20035;-78
2023/07/12 10:33:13;;;;;;;14.10;5.40;;;;;;;22.92;100.00;92849.63;4958074;29;20031;-77
2023/07/12 10:35:46;;;;;;;14.02;5.85;;;;;;;22.87;100.00;92840.00;4956982;29;20519;-78
2023/07/12 10:38:18;;;;;;;19.50;6.00;;;;;;;22.80;100.00;92841.78;4959807;28;20031;-77
2023/07/12 10:40:46;;;;;;;14.35;6.03;;;;;;;22.68;100.00;92852.63;4977219;28;20404;-77
2023/07/12 10:43:39;;;;;;;21.38;5.90;;;;;;;22.75;100.00;92850.06;4953529;29;20086;-77
2023/07/12 10:46:14;;;;;;;;;;;;;;;22.67;100.00;92843.81;4959692;28;20407;-77
2023/07/12 10:48:47;;;;;;;18.17;6.53;;;;;;;22.69;100.00;92848.81;4974722;28;19914;-77
2023/07/12 10:51:33;;;;;;;14.65;6.30;;;;;;;22.60;100.00;92841.78;4957183;28;20552;-77
2023/07/12 10:53:59;;;;;;;22.40;7.10;;;;;;;22.66;100.00;92840.38;4962987;28;20046;-77
2023/07/12 10:56:27;;;;;;;15.70;5.57;;;;;;;22.61;100.00;92843.34;4945437;28;20031;-77
2023/07/12 10:58:59;;;;;;;18.42;4.82;;;;;;;22.62;100.00;92842.22;4969907;28;20482;-77
2023/07/12 11:01:35;;;;;;;;;;;;;;;22.49;100.00;92843.47;4960966;28;20031;-78
2023/07/12 11:04:09;;;;;;;16.65;4.90;;;;;;;22.44;100.00;92838.44;4970825;28;20463;-79
2023/07/12 11:06:52;;;;;;;14.38;5.00;;;;;;;22.49;100.00;92827.47;4971879;28;20030;-79
2023/07/12 11:09:18;;;;;;;11.18;4.60;;;;;;;22.48;100.00;92831.28;4962258;28;20046;-79
2023/07/12 11:11:50;;;;;;;12.25;4.55;;;;;;;22.51;100.00;92835.13;4951288;29;20050;-79
2023/07/12 11:14:37;;;;;;;11.18;4.50;;;;;;;22.59;100.00;92829.59;4958360;28;20038;-79
2023/07/12 11:17:06;;;;;;;13.38;4.80;;;;;;;22.69;100.00;92827.47;4950104;28;20031;-78
2023/07/12 11:31:13;;;;;;;20.02;5.53;;;;;;;23.18;100.00;92829.50;5670026;24;20046;-78